• Join FlightAware (Why Join?)
  • Login
  • US Flag 
11:55PM EDT


 

Airport Tracker/Info


-or-


 

Live Flight TrackerFlight Track Log ✈ KAP720 ✈ 16-May-2013 ✈ KBOS - KACK

Flight Track Log - Related Links

Times and Time Zones

All times are in EDT time to prevent confusion due to time zone crossing. See the KAP720 flight status page for this flight to view local times or setup timezone preferences in your user account.

Time Position Orientation Groundspeed Altitude Reporting Facility
EDT Latitude Longitude Course Direction KTS MPH feet Rate Location/Type
09:00AM 42.3500 -71.0167 236° Southwest 112 129 800  Level KA90
09:01AM 42.3333 -71.0500 236° Southwest 112 129 1,600 600 Climbing KA90
09:02AM 42.3000 -71.0333 160° South 144 166 2,000 480 Climbing KA90
09:03AM 42.2500 -71.0167 166° South 141 162 2,600 480 Climbing KA90
09:04AM 42.2167 -70.9833 143° Southeast 161 185 3,000 300 Climbing KA90
09:05AM 42.1833 -70.9333 132° Southeast 166 191 3,300 240 Climbing KA90
09:06AM 42.1500 -70.9000 143° Southeast 183 211 3,500 60 Climbing KA90
09:07AM 42.1000 -70.8667 154° Southeast 192 221 3,500  Level KA90
09:08AM 42.0667 -70.8167 132° Southeast 181 208 3,500  Level KA90
09:09AM 42.0167 -70.7833 154° Southeast 182 209 3,500  Level KA90
09:11AM 41.9791 -70.7473 144° Southeast  Level Estimated
09:18AM 41.7398 -70.5187 144° Southeast  Level Estimated
09:19AM 41.7056 -70.4862 145° Southeast  Level Estimated
09:20AM 41.6713 -70.4537 145° Southeast  Level Estimated
09:21AM 41.6371 -70.4212 145° Southeast  Level Estimated
09:22AM 41.6029 -70.3888 145° Southeast  Level Estimated
09:23AM 41.5686 -70.3564 145° Southeast  Level Estimated
09:24AM 41.5343 -70.3241 145° Southeast  Level Estimated
09:25AM 41.5000 -70.2918 145° Southeast  Level Estimated
09:26AM 41.4658 -70.2595 145° Southeast  Level Estimated
09:27AM 41.4314 -70.2273 145° Southeast  Level Estimated
09:28AM 41.3971 -70.1951 145° Southeast  Level Estimated
09:29AM 41.3628 -70.1629 145° Southeast  Level Estimated
09:30AM 41.3285 -70.1308 145° Southeast  Level Estimated
09:31AM 41.2942 -70.0987 145° Southeast  Level Estimated
09:32AM 41.2598 -70.0666 145° Southeast  Level Estimated
09:33AM 41.2531 -70.0603 145° Southeast  Level Estimated
09:34AM 41.2531 -70.0603 72° East  Level Estimated
09:35AM 41.2531 -70.0603 72° East  Level Estimated
09:36AM 41.2531 -70.0603 72° East  Level Estimated
09:37AM 41.2531 -70.0603 72° East  Level Estimated
09:38AM 41.2531 -70.0603 72° East  Level Estimated
09:39AM 41.2531 -70.0603 72° East  Level Estimated
09:40AM 41.2531 -70.0603 72° East  Level Estimated
09:41AM 41.2531 -70.0603 72° East  Level Estimated
09:42AM 41.2531 -70.0603 72° East  Level Estimated
09:43AM 41.2531 -70.0603 72° East  Level Estimated
09:44AM 41.2531 -70.0603 72° East  Level Estimated
09:45AM 41.2531 -70.0603 72° East  Level Estimated
09:46AM 41.2531 -70.0603 72° East  Level Estimated
09:47AM 41.2531 -70.0603 72° East  Level Estimated
09:48AM 41.2531 -70.0603 72° East  Level Estimated
09:49AM 41.2531 -70.0603 72° East  Level Estimated
09:50AM 41.2531 -70.0603 72° East  Level Estimated
09:51AM 41.2531 -70.0603 72° East  Level Estimated
09:52AM 41.2531 -70.0603 72° East  Level Estimated
09:53AM 41.2531 -70.0603 72° East  Level Estimated
09:54AM 41.2531 -70.0603 72° East  Level Estimated